Time;durP1;ratioP1;P1;durP2;ratioP2;P2;SDS_P1;SDS_P2;PMS_P1;PMS_P2;Temp;Humidity;BMP_temperature;BMP_pressure;BME280_temperature;BME280_humidity;BME280_pressure;Samples;Min_cycle;Max_cycle;Signal;HPM_P1;HPM_P2
2022/07/27 00:01:58;;;;;;;0.65;0.55;;;22.50;63.70;;;;;;6243487;22;43413;-60
2022/07/27 00:04:25;;;;;;;1.48;0.70;;;22.50;63.70;;;;;;6243431;22;44037;-60
2022/07/27 00:06:53;;;;;;;0.80;0.63;;;22.50;63.60;;;;;;6243811;22;44826;-60
2022/07/27 00:09:21;;;;;;;0.70;0.52;;;22.50;63.70;;;;;;6242756;22;43969;-60
2022/07/27 00:11:48;;;;;;;1.48;0.70;;;22.50;63.70;;;;;;6243195;22;43410;-60
2022/07/27 00:14:16;;;;;;;1.17;0.75;;;22.50;63.70;;;;;;6243359;22;43513;-60
2022/07/27 00:16:44;;;;;;;0.55;0.52;;;22.50;63.70;;;;;;6242671;22;44934;-60
2022/07/27 00:19:11;;;;;;;0.63;0.60;;;22.50;63.70;;;;;;6243720;22;43797;-60
2022/07/27 00:21:39;;;;;;;0.40;0.40;;;22.50;63.70;;;;;;6243083;22;43359;-60
2022/07/27 00:24:12;;;;;;;0.52;0.52;;;22.50;63.70;;;;;;6242666;22;43352;-60
2022/07/27 00:26:40;;;;;;;0.70;0.70;;;22.50;63.70;;;;;;6243176;22;43764;-60
2022/07/27 00:29:07;;;;;;;0.88;0.63;;;22.40;63.70;;;;;;6243143;22;43651;-60
2022/07/27 00:31:35;;;;;;;0.50;0.50;;;22.50;63.70;;;;;;6243241;22;43395;-60
2022/07/27 00:34:03;;;;;;;0.70;0.70;;;22.40;63.70;;;;;;6243080;22;43444;-61
2022/07/27 00:36:30;;;;;;;0.75;0.70;;;22.40;63.70;;;;;;6242309;22;44011;-60
2022/07/27 00:38:58;;;;;;;1.52;0.80;;;22.40;63.70;;;;;;6243519;22;43400;-60
2022/07/27 00:41:25;;;;;;;0.60;0.60;;;22.40;64.30;;;;;;6243166;22;43460;-60
2022/07/27 00:43:58;;;;;;;0.70;0.70;;;22.40;63.70;;;;;;6243640;22;43591;-60
2022/07/27 00:46:27;;;;;;;0.70;0.70;;;22.40;63.70;;;;;;6243318;22;45163;-61
2022/07/27 00:48:54;;;;;;;0.60;0.60;;;22.40;63.70;;;;;;6243572;22;43910;-60
2022/07/27 00:51:23;;;;;;;0.90;0.80;;;22.40;63.70;;;;;;6242252;22;43400;-60
2022/07/27 00:53:52;;;;;;;0.70;0.70;;;22.40;63.70;;;;;;6244000;22;43375;-61
2022/07/27 00:56:20;;;;;;;1.10;0.73;;;22.40;63.70;;;;;;6242794;22;43789;-60
2022/07/27 00:58:50;;;;;;;0.80;0.68;;;22.40;63.70;;;;;;6242649;22;43443;-60
2022/07/27 01:01:18;;;;;;;0.75;0.75;;;22.40;63.70;;;;;;6243232;22;43576;-60
2022/07/27 01:03:46;;;;;;;1.00;0.70;;;22.40;63.70;;;;;;6243498;22;43376;-60
2022/07/27 01:06:15;;;;;;;0.77;0.77;;;22.30;63.60;;;;;;6242294;22;44855;-60
2022/07/27 01:11:40;;;;;;;0.80;0.55;;;22.30;63.60;;;;;;6242780;22;43421;-60
2022/07/27 01:14:09;;;;;;;1.60;0.60;;;22.30;63.70;;;;;;6243478;22;43622;-60
2022/07/27 01:16:37;;;;;;;1.02;0.68;;;22.30;63.70;;;;;;6243207;22;43953;-60
2022/07/27 01:19:04;;;;;;;1.60;0.85;;;22.30;63.70;;;;;;6242767;22;43419;-60
2022/07/27 01:21:33;;;;;;;0.60;0.50;;;22.30;63.70;;;;;;6243469;22;43499;-60
2022/07/27 01:24:01;;;;;;;1.25;0.77;;;22.30;63.70;;;;;;6244063;22;43514;-60
2022/07/27 01:26:29;;;;;;;1.05;0.70;;;22.30;63.70;;;;;;6242176;22;44689;-60
2022/07/27 01:28:58;;;;;;;0.70;0.70;;;22.30;63.70;;;;;;6243577;22;43695;-60
2022/07/27 01:31:27;;;;;;;0.77;0.65;;;22.30;63.70;;;;;;6242848;22;43433;-60
2022/07/27 01:33:55;;;;;;;0.50;0.50;;;22.30;63.70;;;;;;6242819;22;43464;-60
2022/07/27 01:36:22;;;;;;;1.30;0.50;;;22.30;63.70;;;;;;6243056;22;44056;-60
2022/07/27 01:38:50;;;;;;;0.47;0.45;;;22.30;63.70;;;;;;6243375;22;43943;-60
2022/07/27 01:41:17;;;;;;;1.15;0.60;;;22.30;63.70;;;;;;6242287;22;43427;-60
2022/07/27 01:43:45;;;;;;;1.00;0.90;;;22.30;63.70;;;;;;6243228;22;43380;-60
2022/07/27 01:46:12;;;;;;;0.60;0.60;;;22.20;63.60;;;;;;6243072;22;44921;-61
2022/07/27 01:48:40;;;;;;;1.70;0.63;;;22.20;63.60;;;;;;6242320;22;43910;-61
2022/07/27 01:51:08;;;;;;;0.70;0.70;;;22.20;63.60;;;;;;6243400;22;43352;-60
2022/07/27 01:53:35;;;;;;;1.05;0.95;;;22.20;63.60;;;;;;6242699;22;43478;-60
2022/07/27 01:56:03;;;;;;;0.82;0.60;;;22.20;63.60;;;;;;6243266;22;43762;-60
2022/07/27 01:58:30;;;;;;;1.85;0.73;;;22.20;63.60;;;;;;6242960;22;43746;-60
2022/07/27 02:00:58;;;;;;;0.77;0.60;;;22.20;63.60;;;;;;6243313;22;43411;-60
2022/07/27 02:03:25;;;;;;;0.75;0.60;;;22.20;63.60;;;;;;6242943;22;43978;-60
2022/07/27 02:05:52;;;;;;;2.15;0.80;;;22.20;63.60;;;;;;6243402;22;44661;-60
2022/07/27 02:08:20;;;;;;;1.00;0.70;;;22.20;63.60;;;;;;6242118;22;43958;-60
2022/07/27 02:13:34;;;;;;;0.63;0.63;;;22.20;63.60;;;;;;6242657;22;43498;-61
2022/07/27 02:16:01;;;;;;;0.68;0.45;;;22.10;63.60;;;;;;6242450;22;44611;-60
2022/07/27 02:18:29;;;;;;;0.82;0.70;;;22.10;63.60;;;;;;6242751;22;43350;-60
2022/07/27 02:21:04;;;;;;;0.63;0.60;;;22.10;63.70;;;;;;6242965;22;43483;-60
2022/07/27 02:23:34;;;;;;;0.60;0.60;;;22.10;63.70;;;;;;6241983;22;43511;-60
2022/07/27 02:26:03;;;;;;;0.75;0.65;;;22.10;63.70;;;;;;6242958;22;44904;-60
2022/07/27 02:28:31;;;;;;;0.80;0.80;;;22.10;63.70;;;;;;6242556;22;43400;-60
2022/07/27 02:30:58;;;;;;;1.00;0.80;;;22.10;63.70;;;;;;6242324;22;43480;-60
2022/07/27 02:33:26;;;;;;;0.60;0.50;;;22.10;63.70;;;;;;6242220;22;43482;-60
2022/07/27 02:35:53;;;;;;;1.10;1.00;;;22.10;63.60;;;;;;6242386;22;44689;-60
2022/07/27 02:38:21;;;;;;;1.33;0.70;;;22.10;63.70;;;;;;6242444;22;43442;-60
2022/07/27 02:40:49;;;;;;;0.65;0.47;;;22.10;63.70;;;;;;6242850;22;43704;-60
2022/07/27 02:43:17;;;;;;;1.00;0.60;;;22.10;63.60;;;;;;6241680;22;43404;-61
2022/07/27 02:45:44;;;;;;;0.75;0.57;;;22.10;63.70;;;;;;6242704;22;44274;-60
2022/07/27 02:48:13;;;;;;;1.05;0.77;;;22.00;63.60;;;;;;6242926;22;43728;-60
2022/07/27 02:50:40;;;;;;;0.60;0.60;;;22.10;63.70;;;;;;6241875;22;43414;-60
2022/07/27 02:53:08;;;;;;;0.80;0.80;;;22.00;63.70;;;;;;6242784;22;43462;-60
2022/07/27 02:55:35;;;;;;;0.60;0.60;;;22.00;63.60;;;;;;6242587;22;44965;-60
2022/07/27 02:58:03;;;;;;;0.57;0.50;;;22.00;63.60;;;;;;6241678;22;43660;-60
2022/07/27 03:00:30;;;;;;;0.60;0.60;;;22.00;63.60;;;;;;6242521;22;43415;-60
2022/07/27 03:02:58;;;;;;;0.80;0.63;;;22.00;63.60;;;;;;6243098;22;43459;-60
2022/07/27 03:05:25;;;;;;;0.60;0.60;;;22.00;63.60;;;;;;6241711;22;44639;-60
2022/07/27 03:07:52;;;;;;;1.10;0.93;;;22.00;63.60;;;;;;6243102;22;43680;-60
2022/07/27 03:10:20;;;;;;;1.40;0.60;;;22.00;63.60;;;;;;6242254;22;43492;-60
2022/07/27 03:12:47;;;;;;;0.65;0.60;;;22.00;63.60;;;;;;6241776;22;43413;-60
2022/07/27 03:15:15;;;;;;;0.65;0.60;;;22.00;63.60;;;;;;6242238;22;44685;-60
2022/07/27 03:17:43;;;;;;;0.70;0.70;;;22.00;63.60;;;;;;6242678;22;43400;-60
2022/07/27 03:20:13;;;;;;;1.30;0.90;;;22.00;63.60;;;;;;6241973;22;43351;-60
2022/07/27 03:22:41;;;;;;;0.60;0.50;;;22.00;63.60;;;;;;6242128;22;43488;-60
2022/07/27 03:25:09;;;;;;;1.27;0.63;;;22.00;63.60;;;;;;6241486;22;44065;-60
2022/07/27 03:27:37;;;;;;;0.55;0.52;;;22.00;63.60;;;;;;6242016;22;44266;-60
2022/07/27 03:30:05;;;;;;;1.70;0.60;;;22.00;63.60;;;;;;6241988;22;43803;-60
2022/07/27 03:32:33;;;;;;;0.82;0.47;;;21.90;63.60;;;;;;6242022;22;43421;-60
2022/07/27 03:35:00;;;;;;;0.57;0.57;;;21.90;63.60;;;;;;6243581;22;44695;-60
2022/07/27 03:37:28;;;;;;;0.82;0.60;;;22.00;63.60;;;;;;6243560;22;43423;-60
2022/07/27 03:39:55;;;;;;;0.95;0.75;;;21.90;63.50;;;;;;6243165;22;43416;-60
2022/07/27 03:42:23;;;;;;;0.65;0.65;;;21.90;63.50;;;;;;6243581;22;43966;-60
2022/07/27 03:44:50;;;;;;;1.52;0.82;;;21.90;63.50;;;;;;6243333;22;44054;-60
2022/07/27 03:47:18;;;;;;;0.85;0.85;;;21.90;63.60;;;;;;6242591;22;43968;-60
2022/07/27 03:49:46;;;;;;;0.60;0.60;;;21.90;63.50;;;;;;6243663;22;43391;-60
2022/07/27 03:52:14;;;;;;;0.68;0.65;;;21.90;63.60;;;;;;6242346;22;43488;-60
2022/07/27 03:54:45;;;;;;;1.25;0.60;;;21.90;63.50;;;;;;6241469;22;44631;-61
2022/07/27 03:57:13;;;;;;;1.08;0.85;;;21.90;63.50;;;;;;6242295;22;43354;-60
2022/07/27 03:59:41;;;;;;;0.70;0.57;;;21.80;63.50;;;;;;6243298;22;43423;-61
2022/07/27 04:02:08;;;;;;;1.63;0.60;;;21.80;63.50;;;;;;6242829;22;43394;-60
2022/07/27 04:04:36;;;;;;;0.57;0.50;;;21.90;63.50;;;;;;6242848;22;44916;-60
2022/07/27 04:07:03;;;;;;;1.15;0.63;;;21.90;63.50;;;;;;6243310;22;43657;-61
2022/07/27 04:09:31;;;;;;;1.67;0.65;;;21.80;63.50;;;;;;6243286;22;43472;-60
2022/07/27 04:11:58;;;;;;;1.10;0.77;;;21.80;63.60;;;;;;6243838;22;43518;-61
2022/07/27 04:14:26;;;;;;;0.85;0.55;;;21.80;63.50;;;;;;6242260;22;44976;-61
2022/07/27 04:16:53;;;;;;;0.60;0.52;;;21.80;63.50;;;;;;6243544;22;43367;-61
2022/07/27 04:19:21;;;;;;;0.70;0.50;;;21.80;63.50;;;;;;6243201;22;44004;-61
2022/07/27 04:21:48;;;;;;;0.70;0.70;;;21.80;63.50;;;;;;6242812;22;43476;-61
2022/07/27 04:24:16;;;;;;;0.50;0.50;;;21.80;63.50;;;;;;6242900;22;44030;-61
2022/07/27 04:26:43;;;;;;;0.65;0.57;;;21.80;63.50;;;;;;6243196;22;43404;-61
2022/07/27 04:29:11;;;;;;;1.65;0.82;;;21.80;63.50;;;;;;6242462;22;43879;-61
2022/07/27 04:31:46;;;;;;;0.70;0.55;;;21.80;63.50;;;;;;6243410;22;43517;-61
2022/07/27 04:34:13;;;;;;;1.65;0.80;;;21.80;63.60;;;;;;6242899;22;44637;-61
2022/07/27 04:36:41;;;;;;;1.00;0.65;;;21.80;63.60;;;;;;6242167;22;44223;-61
2022/07/27 04:39:08;;;;;;;0.70;0.60;;;21.80;63.50;;;;;;6243395;22;43360;-61
2022/07/27 04:41:36;;;;;;;0.93;0.65;;;21.80;63.60;;;;;;6242810;22;43951;-60
2022/07/27 04:44:04;;;;;;;1.63;0.68;;;21.70;63.50;;;;;;6241995;22;44915;-60
2022/07/27 04:46:31;;;;;;;0.40;0.40;;;21.70;63.60;;;;;;6243144;22;43673;-60
2022/07/27 04:48:59;;;;;;;0.85;0.60;;;21.70;63.50;;;;;;6243458;22;43399;-61
2022/07/27 04:51:27;;;;;;;0.90;0.50;;;21.70;64.20;;;;;;6242430;22;43605;-60
2022/07/27 04:54:01;;;;;;;0.50;0.40;;;21.80;63.70;;;;;;6242676;22;44940;-61
2022/07/27 04:56:28;;;;;;;1.20;0.77;;;21.70;63.50;;;;;;6242346;22;43971;-61
2022/07/27 04:58:56;;;;;;;0.80;0.70;;;21.70;63.50;;;;;;6243627;22;43941;-61
2022/07/27 05:01:24;;;;;;;0.70;0.70;;;21.70;63.60;;;;;;6243186;22;43403;-61
2022/07/27 05:03:56;;;;;;;0.50;0.50;;;21.70;63.60;;;;;;6215073;22;43779;-60
2022/07/27 05:06:24;;;;;;;0.85;0.50;;;21.70;63.60;;;;;;6243173;22;43476;-61
2022/07/27 05:08:51;;;;;;;0.57;0.57;;;21.70;64.20;;;;;;6243369;22;43398;-61
2022/07/27 05:11:19;;;;;;;1.02;0.70;;;21.70;63.60;;;;;;6242273;22;43407;-61
2022/07/27 05:13:46;;;;;;;1.25;0.80;;;21.70;63.60;;;;;;6242753;22;43802;-60
2022/07/27 05:16:14;;;;;;;1.13;0.75;;;21.70;63.60;;;;;;6242960;22;43757;-61
2022/07/27 05:18:42;;;;;;;0.70;0.70;;;21.70;63.60;;;;;;6242211;22;43432;-61
2022/07/27 05:21:09;;;;;;;0.60;0.57;;;21.70;63.60;;;;;;6243266;22;43485;-61
2022/07/27 05:23:37;;;;;;;0.73;0.60;;;21.70;63.60;;;;;;6242749;22;44781;-61
2022/07/27 05:26:04;;;;;;;1.13;0.65;;;21.70;64.20;;;;;;6241756;22;43430;-61
2022/07/27 05:28:32;;;;;;;0.60;0.60;;;21.70;63.60;;;;;;6243046;22;43867;-61
2022/07/27 05:30:59;;;;;;;0.80;0.60;;;21.70;63.60;;;;;;6243106;22;44149;-61
2022/07/27 05:33:27;;;;;;;0.70;0.70;;;21.70;63.60;;;;;;6241999;22;44671;-61
2022/07/27 05:35:55;;;;;;;1.30;0.70;;;21.70;63.60;;;;;;6243147;22;43400;-61
2022/07/27 05:38:23;;;;;;;1.95;0.82;;;21.60;63.60;;;;;;6242966;22;43402;-60
2022/07/27 05:40:51;;;;;;;0.90;0.60;;;21.70;63.60;;;;;;6242375;22;43550;-61
2022/07/27 05:43:19;;;;;;;0.82;0.65;;;21.70;63.80;;;;;;6242800;22;44930;-60
2022/07/27 05:45:47;;;;;;;0.65;0.50;;;21.70;63.60;;;;;;6242274;22;43933;-60
2022/07/27 05:48:14;;;;;;;0.63;0.50;;;21.70;63.60;;;;;;6243047;22;43455;-60
2022/07/27 05:50:42;;;;;;;0.60;0.60;;;21.70;63.60;;;;;;6243041;22;43582;-60
2022/07/27 05:53:10;;;;;;;0.60;0.60;;;21.70;63.70;;;;;;6242089;22;44951;-61
2022/07/27 05:55:37;;;;;;;0.80;0.60;;;21.70;63.60;;;;;;6242361;22;43657;-60
2022/07/27 05:58:24;;;;;;;1.08;0.70;;;21.60;63.60;;;;;;6243076;22;43402;-61
2022/07/27 06:00:52;;;;;;;1.27;0.85;;;21.60;63.60;;;;;;6215819;22;43446;-61
2022/07/27 06:03:19;;;;;;;0.60;0.60;;;21.60;63.60;;;;;;6242854;22;44954;-61
2022/07/27 06:05:47;;;;;;;0.80;0.68;;;21.60;63.60;;;;;;6242689;22;44162;-61
2022/07/27 06:08:15;;;;;;;0.80;0.63;;;21.60;63.50;;;;;;6242187;22;43371;-61
2022/07/27 06:10:42;;;;;;;0.75;0.52;;;21.60;63.50;;;;;;6242718;22;43622;-60
2022/07/27 06:13:10;;;;;;;0.68;0.68;;;21.60;63.50;;;;;;6242793;22;44017;-61
2022/07/27 06:15:39;;;;;;;0.63;0.60;;;21.60;63.50;;;;;;6241843;22;43419;-61
2022/07/27 06:18:12;;;;;;;0.50;0.50;;;21.60;63.50;;;;;;6242875;22;43350;-61
2022/07/27 06:20:41;;;;;;;0.77;0.65;;;21.60;63.50;;;;;;6243075;22;43399;-61
2022/07/27 06:23:09;;;;;;;0.80;0.80;;;21.60;63.70;;;;;;6242854;22;44860;-60
2022/07/27 06:25:37;;;;;;;0.90;0.70;;;21.60;63.60;;;;;;6242711;22;44006;-60
2022/07/27 06:28:05;;;;;;;0.68;0.65;;;21.60;63.70;;;;;;6241939;22;43373;-61
2022/07/27 06:30:33;;;;;;;0.70;0.70;;;21.60;63.60;;;;;;6242341;22;43399;-61
2022/07/27 06:33:05;;;;;;;0.77;0.70;;;21.60;63.70;;;;;;6242665;22;44644;-60
2022/07/27 06:35:33;;;;;;;0.90;0.80;;;21.60;63.70;;;;;;6242406;22;43486;-62
2022/07/27 06:38:03;;;;;;;1.10;0.70;;;21.60;63.70;;;;;;6243040;22;43375;-60
2022/07/27 06:40:31;;;;;;;0.90;0.90;;;21.60;63.70;;;;;;6242626;22;43474;-61
2022/07/27 06:42:58;;;;;;;0.88;0.65;;;21.60;63.70;;;;;;6242017;22;44674;-61
2022/07/27 06:45:26;;;;;;;1.00;0.82;;;21.60;63.80;;;;;;6215391;22;43422;-61
2022/07/27 06:47:54;;;;;;;0.90;0.73;;;21.60;63.70;;;;;;6242947;22;43412;-60
2022/07/27 06:50:21;;;;;;;1.25;0.63;;;21.60;63.70;;;;;;6241961;22;43435;-60
2022/07/27 06:52:49;;;;;;;0.60;0.60;;;21.60;63.60;;;;;;6242294;22;43755;-60
2022/07/27 06:55:17;;;;;;;1.08;0.60;;;21.60;63.60;;;;;;6242490;22;43423;-61
2022/07/27 06:57:45;;;;;;;1.08;0.65;;;21.60;63.60;;;;;;6241828;22;43437;-61
2022/07/27 07:00:13;;;;;;;0.60;0.60;;;21.60;63.60;;;;;;6242975;22;43403;-61
2022/07/27 07:02:56;;;;;;;1.42;0.90;;;21.60;63.60;;;;;;6242390;22;43777;-61
2022/07/27 07:05:24;;;;;;;1.85;0.70;;;21.60;63.60;;;;;;6242809;22;43376;-61
2022/07/27 07:07:52;;;;;;;0.82;0.73;;;21.60;63.70;;;;;;6243923;22;43379;-61
2022/07/27 07:10:21;;;;;;;1.85;0.77;;;21.60;63.70;;;;;;6242846;22;43490;-61
2022/07/27 07:12:56;;;;;;;1.00;0.85;;;21.60;63.60;;;;;;6243580;22;45273;-61
2022/07/27 07:15:25;;;;;;;0.70;0.60;;;21.70;63.60;;;;;;6243730;22;43664;-61
2022/07/27 07:17:53;;;;;;;0.70;0.70;;;21.60;63.60;;;;;;6243503;22;43391;-61
2022/07/27 07:20:20;;;;;;;1.48;1.00;;;21.60;63.60;;;;;;6243595;22;43388;-61
2022/07/27 07:22:48;;;;;;;1.88;0.90;;;21.60;63.60;;;;;;6243683;22;44665;-61
2022/07/27 07:25:16;;;;;;;0.80;0.80;;;21.60;63.60;;;;;;6242762;22;43452;-60
2022/07/27 07:27:44;;;;;;;1.63;0.90;;;21.60;63.60;;;;;;6243967;22;43424;-61
2022/07/27 07:30:11;;;;;;;1.67;0.70;;;21.60;63.60;;;;;;6243661;22;43458;-60
2022/07/27 07:32:39;;;;;;;0.70;0.70;;;21.70;63.70;;;;;;6242755;22;44930;-60
2022/07/27 07:35:07;;;;;;;1.52;1.00;;;21.70;63.60;;;;;;6243443;22;43939;-60
2022/07/27 07:37:35;;;;;;;1.23;0.75;;;21.60;63.50;;;;;;6243816;22;43459;-60
2022/07/27 07:40:04;;;;;;;1.33;0.85;;;21.70;63.70;;;;;;6243353;22;43399;-60
2022/07/27 07:42:55;;;;;;;2.28;0.75;;;21.70;63.60;;;;;;6243999;22;43737;-60
2022/07/27 07:45:23;;;;;;;1.58;0.70;;;21.60;63.50;;;;;;6243268;22;43348;-60
2022/07/27 07:47:51;;;;;;;0.82;0.77;;;21.70;63.60;;;;;;6243982;22;43383;-60
2022/07/27 07:50:20;;;;;;;0.68;0.65;;;21.70;63.50;;;;;;6243764;22;43493;-60
2022/07/27 07:52:49;;;;;;;2.55;0.80;;;21.70;63.50;;;;;;6243523;22;43760;-60
2022/07/27 07:55:25;;;;;;;0.70;0.65;;;21.70;63.60;;;;;;6243447;22;43730;-60
2022/07/27 07:57:53;;;;;;;0.80;0.80;;;21.70;63.50;;;;;;6244067;22;43505;-60
2022/07/27 08:00:21;;;;;;;0.85;0.75;;;21.70;63.50;;;;;;6242684;22;43459;-60
2022/07/27 08:02:51;;;;;;;1.45;0.90;;;21.70;63.50;;;;;;6243622;22;43722;-60
2022/07/27 08:05:19;;;;;;;0.85;0.80;;;21.60;63.40;;;;;;6243470;22;43960;-60
2022/07/27 08:07:48;;;;;;;0.95;0.90;;;21.60;63.50;;;;;;6242564;22;43419;-60
2022/07/27 08:10:17;;;;;;;0.65;0.60;;;21.70;63.50;;;;;;6243684;22;43463;-60
2022/07/27 08:12:52;;;;;;;1.08;0.80;;;21.70;63.50;;;;;;6243290;22;44661;-60
2022/07/27 08:15:21;;;;;;;1.65;0.82;;;21.70;63.50;;;;;;6242627;22;43376;-60
2022/07/27 08:18:05;;;;;;;0.77;0.60;;;21.60;63.40;;;;;;6243751;22;43459;-60
2022/07/27 08:20:34;;;;;;;0.68;0.63;;;21.70;63.50;;;;;;6243110;22;43458;-60
2022/07/27 08:23:03;;;;;;;1.00;0.90;;;21.70;63.50;;;;;;6243700;22;44669;-60
2022/07/27 08:25:31;;;;;;;1.58;0.80;;;21.60;63.40;;;;;;6242976;22;43405;-60
2022/07/27 08:27:59;;;;;;;1.02;0.80;;;21.70;63.50;;;;;;6242898;22;43378;-60
2022/07/27 08:30:29;;;;;;;1.65;0.90;;;21.70;63.50;;;;;;6243187;22;43601;-60
2022/07/27 08:33:01;;;;;;;0.98;0.63;;;21.70;63.50;;;;;;6243796;22;44767;-60
2022/07/27 08:35:31;;;;;;;0.70;0.60;;;21.70;63.40;;;;;;6242246;22;43412;-60
2022/07/27 08:37:59;;;;;;;2.03;0.70;;;21.60;63.30;;;;;;6243667;22;43397;-60
2022/07/27 08:40:27;;;;;;;0.80;0.70;;;21.60;63.40;;;;;;6243142;22;43577;-60
2022/07/27 08:43:07;;;;;;;3.53;0.70;;;21.70;63.40;;;;;;6218568;22;43777;-60
2022/07/27 08:45:36;;;;;;;0.93;0.82;;;21.70;63.40;;;;;;6242967;22;43412;-60
2022/07/27 08:48:04;;;;;;;0.75;0.70;;;21.70;63.30;;;;;;6243490;22;43420;-60
2022/07/27 08:50:34;;;;;;;1.17;0.75;;;21.70;63.30;;;;;;6242336;22;43509;-60
2022/07/27 08:53:08;;;;;;;1.48;0.93;;;21.70;63.20;;;;;;6243458;22;44657;-60
2022/07/27 08:55:38;;;;;;;1.45;0.90;;;21.70;63.20;;;;;;6242462;22;43943;-61
2022/07/27 08:58:07;;;;;;;2.05;0.85;;;21.70;63.20;;;;;;6243608;22;43912;-60
2022/07/27 09:00:38;;;;;;;1.02;0.80;;;21.70;63.20;;;;;;6215860;22;43395;-60
2022/07/27 09:03:06;;;;;;;1.60;0.85;;;21.70;63.20;;;;;;6242380;22;44767;-60
2022/07/27 09:05:43;;;;;;;1.02;0.82;;;21.70;63.20;;;;;;6242728;22;43355;-60
2022/07/27 09:08:23;;;;;;;1.00;0.80;;;21.70;63.20;;;;;;6243629;22;43441;-60
2022/07/27 09:10:54;;;;;;;0.95;0.55;;;21.70;63.20;;;;;;6242588;22;43422;-60
2022/07/27 09:13:29;;;;;;;1.27;0.82;;;21.70;63.20;;;;;;6242939;22;44321;-60
2022/07/27 09:15:59;;;;;;;1.25;0.77;;;21.70;63.10;;;;;;6243488;22;43697;-60
2022/07/27 09:18:47;;;;;;;0.70;0.65;;;21.70;63.10;;;;;;6242727;22;43389;-60
2022/07/27 09:21:22;;;;;;;1.45;0.70;;;21.70;63.10;;;;;;6243051;22;43537;-60
2022/07/27 09:23:53;;;;;;;2.47;0.82;;;21.70;63.10;;;;;;6236975;22;44715;-60
2022/07/27 09:26:25;;;;;;;1.45;0.47;;;21.80;63.10;;;;;;6242396;22;43359;-60
2022/07/27 09:29:03;;;;;;;0.60;0.60;;;21.70;63.00;;;;;;6243359;22;43410;-60
2022/07/27 09:31:31;;;;;;;0.88;0.73;;;21.80;63.00;;;;;;6238088;22;43578;-60
2022/07/27 09:34:01;;;;;;;0.68;0.60;;;21.70;63.00;;;;;;6241501;22;43981;-60
2022/07/27 09:36:30;;;;;;;0.75;0.75;;;21.70;63.00;;;;;;6241414;22;43407;-60
2022/07/27 09:39:04;;;;;;;1.00;0.85;;;21.80;63.00;;;;;;6241751;22;43341;-61
2022/07/27 09:41:47;;;;;;;0.73;0.60;;;21.80;63.00;;;;;;6242725;22;43396;-60
2022/07/27 09:44:15;;;;;;;0.70;0.70;;;21.80;63.00;;;;;;6242456;22;44819;-60
2022/07/27 09:47:21;;;;;;;1.27;0.70;;;21.80;63.00;;;;;;6240622;22;43322;-60
2022/07/27 09:49:49;;;;;;;0.70;0.70;;;21.80;63.00;;;;;;6242864;22;43347;-60
2022/07/27 09:52:28;;;;;;;0.52;0.52;;;21.80;63.10;;;;;;6242366;22;43459;-61
2022/07/27 09:55:03;;;;;;;1.17;0.70;;;21.80;63.00;;;;;;6243100;22;44006;-60
2022/07/27 09:57:49;;;;;;;0.82;0.65;;;21.80;63.00;;;;;;6242974;22;43423;-60
2022/07/27 10:00:17;;;;;;;0.70;0.70;;;21.80;63.10;;;;;;6242464;22;43404;-60
2022/07/27 10:02:45;;;;;;;0.82;0.63;;;21.80;63.70;;;;;;6243197;22;43529;-60
2022/07/27 10:05:12;;;;;;;0.60;0.60;;;21.80;63.10;;;;;;6242677;22;44632;-60
2022/07/27 10:07:40;;;;;;;1.00;0.70;;;21.80;63.10;;;;;;6241806;22;43368;-61
2022/07/27 10:10:08;;;;;;;0.90;0.60;;;21.80;63.10;;;;;;6242664;22;43408;-60
2022/07/27 10:12:36;;;;;;;1.38;0.70;;;21.80;63.00;;;;;;6242955;22;43439;-61
2022/07/27 10:15:03;;;;;;;0.75;0.75;;;21.80;62.80;;;;;;6241622;22;44000;-61
2022/07/27 10:17:31;;;;;;;0.77;0.70;;;21.90;63.00;;;;;;6242402;22;43447;-61
2022/07/27 10:20:02;;;;;;;0.85;0.70;;;21.90;63.00;;;;;;6242601;22;43412;-61
2022/07/27 10:22:51;;;;;;;0.60;0.60;;;21.90;62.90;;;;;;6243116;22;43411;-61
2022/07/27 10:25:23;;;;;;;0.80;0.57;;;21.90;62.70;;;;;;6242756;22;43759;-60
2022/07/27 10:28:20;;;;;;;0.80;0.70;;;21.90;62.80;;;;;;6215296;22;43333;-61
2022/07/27 10:30:48;;;;;;;1.45;0.80;;;21.90;62.70;;;;;;6223597;22;43979;-60
2022/07/27 10:33:42;;;;;;;1.75;0.95;;;21.90;63.10;;;;;;6242783;22;43391;-60
2022/07/27 10:36:15;;;;;;;2.30;0.90;;;21.90;63.00;;;;;;6242082;22;43999;-61
2022/07/27 10:38:49;;;;;;;1.92;0.80;;;21.90;62.90;;;;;;6242791;22;43352;-61
2022/07/27 10:41:39;;;;;;;3.13;1.00;;;21.90;63.00;;;;;;6238013;22;43522;-61
2022/07/27 10:44:21;;;;;;;1.77;1.10;;;22.00;63.10;;;;;;6241072;22;43453;-61
2022/07/27 10:47:00;;;;;;;3.88;1.30;;;22.00;63.20;;;;;;6241874;22;44943;-61
2022/07/27 10:49:31;;;;;;;1.77;1.10;;;22.10;62.90;;;;;;6241175;22;43375;-60
2022/07/27 10:52:26;;;;;;;1.85;1.30;;;22.10;62.80;;;;;;6241881;22;43363;-60
2022/07/27 10:54:54;;;;;;;1.73;1.30;;;22.10;62.90;;;;;;6242251;22;43478;-60
2022/07/27 10:57:26;;;;;;;1.92;1.02;;;22.10;62.80;;;;;;6241436;22;43836;-61
2022/07/27 10:59:55;;;;;;;2.08;1.10;;;22.10;63.00;;;;;;6241556;22;43937;-61
2022/07/27 11:02:42;;;;;;;1.20;1.10;;;22.10;62.90;;;;;;6241063;22;43389;-61
2022/07/27 11:05:10;;;;;;;1.60;1.17;;;22.20;62.90;;;;;;6241626;22;43427;-61
2022/07/27 11:07:59;;;;;;;2.00;1.00;;;22.20;63.00;;;;;;6219976;22;44913;-61
2022/07/27 11:10:47;;;;;;;2.00;1.05;;;22.20;63.00;;;;;;6240649;22;43687;-61
2022/07/27 11:13:20;;;;;;;2.22;1.15;;;22.20;62.50;;;;;;6242187;22;43433;-61
2022/07/27 11:15:56;;;;;;;1.02;0.93;;;22.30;62.70;;;;;;6241994;22;43456;-60
2022/07/27 11:18:52;;;;;;;2.20;1.30;;;22.20;62.70;;;;;;6241765;22;43774;-61
2022/07/27 11:21:27;;;;;;;2.15;1.30;;;22.30;62.90;;;;;;6241461;22;43464;-61
2022/07/27 11:24:16;;;;;;;2.33;1.00;;;22.30;62.90;;;;;;6241517;22;43395;-61
2022/07/27 11:26:51;;;;;;;1.15;0.90;;;22.30;62.70;;;;;;6241624;22;43376;-61
2022/07/27 11:29:21;;;;;;;1.65;1.08;;;22.30;62.80;;;;;;6241801;22;44682;-61
2022/07/27 11:31:53;;;;;;;1.05;0.95;;;22.30;62.70;;;;;;6239824;22;43739;-61
2022/07/27 11:34:33;;;;;;;1.23;0.80;;;22.40;62.70;;;;;;6242329;22;43393;-60
2022/07/27 11:37:02;;;;;;;2.65;0.90;;;22.40;62.80;;;;;;6242841;22;43344;-60
2022/07/27 11:39:32;;;;;;;2.70;1.10;;;22.40;62.80;;;;;;6241154;22;43991;-61
2022/07/27 11:42:19;;;;;;;2.60;1.10;;;22.40;62.70;;;;;;6241939;22;43344;-61
2022/07/27 11:44:51;;;;;;;1.45;0.98;;;22.40;62.80;;;;;;6241467;22;43361;-60
2022/07/27 11:47:22;;;;;;;1.58;1.00;;;22.40;62.70;;;;;;6241984;22;43573;-61
2022/07/27 11:49:50;;;;;;;1.42;0.75;;;22.40;62.70;;;;;;6242115;22;43866;-61
2022/07/27 11:52:18;;;;;;;1.55;1.02;;;22.40;62.60;;;;;;6241628;22;43981;-61
2022/07/27 11:54:51;;;;;;;1.65;0.93;;;22.50;62.70;;;;;;6243239;22;43365;-61
2022/07/27 11:57:19;;;;;;;1.80;1.08;;;22.50;62.60;;;;;;6243792;22;43380;-61
2022/07/27 11:59:47;;;;;;;1.35;0.90;;;22.50;62.60;;;;;;6242508;22;44850;-61
2022/07/27 12:02:18;;;;;;;1.08;0.90;;;22.50;62.60;;;;;;6243439;22;43340;-61
2022/07/27 12:04:48;;;;;;;0.95;0.93;;;22.50;62.60;;;;;;6243900;22;43367;-61
2022/07/27 12:07:18;;;;;;;2.13;1.00;;;22.50;62.60;;;;;;6242602;22;43563;-60
2022/07/27 12:09:55;;;;;;;1.48;0.90;;;22.60;62.60;;;;;;6243436;22;44023;-61
2022/07/27 12:12:27;;;;;;;1.00;0.90;;;22.60;62.50;;;;;;6242868;22;44002;-61
2022/07/27 12:15:14;;;;;;;1.70;0.90;;;22.60;62.60;;;;;;6243798;22;43454;-62
2022/07/27 12:18:02;;;;;;;2.15;1.10;;;22.60;62.50;;;;;;6243963;22;43415;-61
2022/07/27 12:20:35;;;;;;;0.93;0.90;;;22.60;62.60;;;;;;6242287;22;43840;-61
2022/07/27 12:23:05;;;;;;;1.17;0.90;;;22.60;62.50;;;;;;6243612;22;43332;-60
2022/07/27 12:25:33;;;;;;;0.98;0.77;;;22.60;62.50;;;;;;6243475;22;43395;-61
2022/07/27 12:28:11;;;;;;;1.10;1.00;;;22.70;62.50;;;;;;6243177;22;43414;-61
2022/07/27 12:30:48;;;;;;;0.98;0.80;;;22.70;62.50;;;;;;6242757;22;43943;-61
2022/07/27 12:33:28;;;;;;;2.10;1.15;;;22.70;62.50;;;;;;6243583;22;43787;-61
2022/07/27 12:35:57;;;;;;;1.15;0.82;;;22.70;62.50;;;;;;6243732;22;43379;-61
2022/07/27 12:38:37;;;;;;;0.90;0.80;;;22.70;62.60;;;;;;6242932;22;43403;-61
2022/07/27 12:41:05;;;;;;;2.00;1.10;;;22.80;62.60;;;;;;6242387;22;43929;-61
2022/07/27 12:43:32;;;;;;;1.38;0.85;;;22.80;62.60;;;;;;6243461;22;43984;-61
2022/07/27 12:46:12;;;;;;;0.75;0.68;;;22.80;62.50;;;;;;6243771;22;43328;-61
2022/07/27 12:48:41;;;;;;;1.92;1.10;;;22.80;62.40;;;;;;6242560;22;43472;-61
2022/07/27 12:51:10;;;;;;;0.82;0.82;;;22.80;62.40;;;;;;6242827;22;43789;-60
2022/07/27 12:53:38;;;;;;;1.17;0.80;;;22.80;62.50;;;;;;6243128;22;43955;-61
2022/07/27 12:56:11;;;;;;;1.55;0.77;;;22.90;62.50;;;;;;6242155;22;43483;-61
2022/07/27 12:58:40;;;;;;;0.90;0.80;;;22.90;62.40;;;;;;6243220;22;43371;-61
2022/07/27 13:01:07;;;;;;;1.67;0.90;;;22.90;62.40;;;;;;6242733;22;43772;-60
2022/07/27 13:03:35;;;;;;;1.38;0.90;;;22.90;62.40;;;;;;6242578;22;43380;-60
2022/07/27 13:06:03;;;;;;;1.10;0.73;;;23.00;62.40;;;;;;6243097;22;43468;-60
2022/07/27 13:08:38;;;;;;;0.73;0.73;;;23.00;62.40;;;;;;6242926;22;43372;-60
2022/07/27 13:11:06;;;;;;;0.90;0.82;;;23.00;62.40;;;;;;6242987;22;43534;-61